Huvudsida
METAR-TAF:

METAR-TAF

Flygplatser :

Sankt Gallen-Altenrheins flygplats

Sankt Gallen, Schweiz

latitud: 47-29-06N, longitud: 009-33-43E, höjd: 398 m

Aktuellt väderrapport

Denna rapport gjordes för 18 minuter sedan, klockan 20:50 UTC
Vind 3 kt från ost/sydost, varierande mellan ost och syd/sydost
Temperatur 6°C
Fuktighet 81%
Tryck 1008 hPa
Sikt 10 km eller mer

METAR: LSZR 142050Z AUTO 12003KT 090V160 9999 NCD 06/03 Q1008

Tid: 22:08 (21:08 UTC)

Väderprognos

Denna rapport gjordes för 6 timmar och 43 minuter sedan, klockan 14:25 UTC
Prognos gäller från 14 kl. 15 UTC till 14 kl. 24 UTC
Vind 5 kt från väst
Sikt 10 km eller mer
Få moln på en höjd av 3500 ft
Spridda moln på en höjd av 5000 ft

TAF: LSZR 141425Z 1415/1424 26005KT 9999 FEW035 SCT050

Aktuella väderrapporter och prognoser från 4000 flygplatser (METAR- och TAF-rapporter).

De tillgängliga stationerna syns som gula och röda prickar på kartan.

För musen över prickarna för att se namnen på stationerna.

Klicka sedan för att få väderrapporter och prognoser.

För att ändra kartan: Klicka på de gröna knapparna med ett svart kors på för att zooma in; den gröna knappen med ett streck på för att zooma ut; eller på de gröna pilarna för angränsande kartor.


METAR-TAF: